sensor_id;sensor_type;location;lat;lon;timestamp;pressure;altitude;pressure_sealevel;temperature;humidity
30463;BME280;17256;43.618;25.336;2023-03-16T00:01:54;99256.81;;;6.62;100.00
30463;BME280;17256;43.618;25.336;2023-03-16T00:04:23;99657.09;;;8.99;100.00
30463;BME280;17256;43.618;25.336;2023-03-16T00:06:58;99613.28;;;8.66;100.00
30463;BME280;17256;43.618;25.336;2023-03-16T00:09:47;99687.84;;;9.08;100.00
30463;BME280;17256;43.618;25.336;2023-03-16T00:12:38;99328.44;;;6.77;100.00
30463;BME280;17256;43.618;25.336;2023-03-16T00:15:34;99695.84;;;8.96;100.00
30463;BME280;17256;43.618;25.336;2023-03-16T00:18:30;99469.25;;;7.33;100.00
30463;BME280;17256;43.618;25.336;2023-03-16T00:21:26;99698.78;;;8.88;100.00
30463;BME280;17256;43.618;25.336;2023-03-16T00:24:01;99290.72;;;6.40;100.00
30463;BME280;17256;43.618;25.336;2023-03-16T00:26:44;99525.44;;;7.62;100.00
30463;BME280;17256;43.618;25.336;2023-03-16T00:29:35;99532.56;;;7.50;100.00
30463;BME280;17256;43.618;25.336;2023-03-16T00:32:06;99266.50;;;6.10;100.00
30463;BME280;17256;43.618;25.336;2023-03-16T00:34:35;99506.91;;;7.51;100.00
30463;BME280;17256;43.618;25.336;2023-03-16T00:37:04;99719.00;;;8.80;100.00
30463;BME280;17256;43.618;25.336;2023-03-16T00:39:31;99271.28;;;6.02;100.00
30463;BME280;17256;43.618;25.336;2023-03-16T00:42:22;99308.88;;;6.13;100.00
30463;BME280;17256;43.618;25.336;2023-03-16T00:45:07;99305.06;;;6.07;100.00
30463;BME280;17256;43.618;25.336;2023-03-16T00:47:37;99518.91;;;7.56;100.00
30463;BME280;17256;43.618;25.336;2023-03-16T00:50:09;99510.06;;;7.48;100.00
30463;BME280;17256;43.618;25.336;2023-03-16T00:52:39;99486.06;;;7.30;100.00
30463;BME280;17256;43.618;25.336;2023-03-16T00:55:08;99501.63;;;7.36;100.00
30463;BME280;17256;43.618;25.336;2023-03-16T00:57:48;99635.53;;;8.17;100.00
30463;BME280;17256;43.618;25.336;2023-03-16T01:00:23;99733.13;;;8.84;100.00
30463;BME280;17256;43.618;25.336;2023-03-16T01:02:54;99486.69;;;7.38;100.00
30463;BME280;17256;43.618;25.336;2023-03-16T01:05:33;99750.63;;;8.96;100.00
30463;BME280;17256;43.618;25.336;2023-03-16T01:08:14;99312.53;;;6.40;100.00
30463;BME280;17256;43.618;25.336;2023-03-16T01:11:06;99594.28;;;7.98;100.00
30463;BME280;17256;43.618;25.336;2023-03-16T01:13:41;99749.75;;;8.89;100.00
30463;BME280;17256;43.618;25.336;2023-03-16T01:16:41;99354.97;;;6.49;100.00
30463;BME280;17256;43.618;25.336;2023-03-16T01:19:21;99345.84;;;6.29;100.00
30463;BME280;17256;43.618;25.336;2023-03-16T01:21:50;99355.31;;;6.33;100.00
30463;BME280;17256;43.618;25.336;2023-03-16T01:24:27;99323.97;;;6.15;100.00
30463;BME280;17256;43.618;25.336;2023-03-16T01:27:08;99376.09;;;6.34;100.00
30463;BME280;17256;43.618;25.336;2023-03-16T01:29:45;99324.41;;;6.19;100.00
30463;BME280;17256;43.618;25.336;2023-03-16T01:32:13;99627.31;;;8.03;100.00
30463;BME280;17256;43.618;25.336;2023-03-16T01:34:44;99471.91;;;7.06;100.00
30463;BME280;17256;43.618;25.336;2023-03-16T01:37:16;99254.56;;;5.77;100.00
30463;BME280;17256;43.618;25.336;2023-03-16T01:40:03;99523.25;;;7.37;100.00
30463;BME280;17256;43.618;25.336;2023-03-16T01:42:45;99770.81;;;8.75;100.00
30463;BME280;17256;43.618;25.336;2023-03-16T01:52:19;99507.03;;;7.23;100.00
30463;BME280;17256;43.618;25.336;2023-03-16T01:55:05;99503.84;;;7.13;100.00
30463;BME280;17256;43.618;25.336;2023-03-16T01:58:04;99760.72;;;8.76;100.00
30463;BME280;17256;43.618;25.336;2023-03-16T02:00:53;99309.69;;;6.07;100.00
30463;BME280;17256;43.618;25.336;2023-03-16T02:04:07;99657.59;;;8.15;100.00
30463;BME280;17256;43.618;25.336;2023-03-16T02:07:14;99777.56;;;8.86;100.00
30463;BME280;17256;43.618;25.336;2023-03-16T02:10:10;99640.34;;;7.95;100.00
30463;BME280;17256;43.618;25.336;2023-03-16T02:13:12;99615.59;;;7.62;100.00
30463;BME280;17256;43.618;25.336;2023-03-16T02:15:57;99542.53;;;7.23;100.00
30463;BME280;17256;43.618;25.336;2023-03-16T02:18:37;99568.00;;;7.36;100.00
30463;BME280;17256;43.618;25.336;2023-03-16T02:24:07;99414.19;;;6.21;100.00
30463;BME280;17256;43.618;25.336;2023-03-16T02:27:20;99810.56;;;8.58;100.00
30463;BME280;17256;43.618;25.336;2023-03-16T02:30:06;99431.31;;;6.14;100.00
30463;BME280;17256;43.618;25.336;2023-03-16T02:33:05;99386.78;;;5.73;100.00
30463;BME280;17256;43.618;25.336;2023-03-16T02:35:40;99821.13;;;8.26;100.00
30463;BME280;17256;43.618;25.336;2023-03-16T02:38:51;99754.53;;;7.99;100.00
30463;BME280;17256;43.618;25.336;2023-03-16T02:41:34;99577.69;;;6.98;100.00
30463;BME280;17256;43.618;25.336;2023-03-16T02:44:26;99638.88;;;7.10;100.00
30463;BME280;17256;43.618;25.336;2023-03-16T02:47:39;99469.34;;;6.23;100.00
30463;BME280;17256;43.618;25.336;2023-03-16T02:50:41;99581.44;;;6.62;100.00
30463;BME280;17256;43.618;25.336;2023-03-16T02:53:19;99581.19;;;6.57;100.00
30463;BME280;17256;43.618;25.336;2023-03-16T02:56:15;99575.84;;;6.70;100.00
30463;BME280;17256;43.618;25.336;2023-03-16T02:58:59;99424.59;;;5.61;100.00
30463;BME280;17256;43.618;25.336;2023-03-16T03:01:31;99668.34;;;7.21;100.00
30463;BME280;17256;43.618;25.336;2023-03-16T03:04:26;99424.19;;;5.64;100.00
30463;BME280;17256;43.618;25.336;2023-03-16T03:06:58;99403.00;;;5.60;100.00
30463;BME280;17256;43.618;25.336;2023-03-16T03:09:37;99846.81;;;8.25;100.00
30463;BME280;17256;43.618;25.336;2023-03-16T03:12:05;99603.13;;;6.70;100.00
30463;BME280;17256;43.618;25.336;2023-03-16T03:14:49;99852.50;;;8.30;100.00
30463;BME280;17256;43.618;25.336;2023-03-16T03:17:40;99739.00;;;7.65;100.00
30463;BME280;17256;43.618;25.336;2023-03-16T03:20:21;99599.88;;;6.88;100.00
30463;BME280;17256;43.618;25.336;2023-03-16T03:23:42;99824.41;;;8.09;100.00
30463;BME280;17256;43.618;25.336;2023-03-16T03:27:07;99503.00;;;6.08;100.00
30463;BME280;17256;43.618;25.336;2023-03-16T03:29:40;99792.72;;;7.86;100.00
30463;BME280;17256;43.618;25.336;2023-03-16T03:32:15;99461.25;;;6.08;100.00
30463;BME280;17256;43.618;25.336;2023-03-16T03:34:55;99657.06;;;7.31;100.00
30463;BME280;17256;43.618;25.336;2023-03-16T03:37:41;99743.97;;;7.90;100.00
30463;BME280;17256;43.618;25.336;2023-03-16T03:40:58;99785.03;;;7.96;100.00
30463;BME280;17256;43.618;25.336;2023-03-16T03:43:45;99696.78;;;7.33;100.00
30463;BME280;17256;43.618;25.336;2023-03-16T03:46:34;99639.88;;;7.02;100.00
30463;BME280;17256;43.618;25.336;2023-03-16T03:49:12;99639.28;;;7.07;100.00
30463;BME280;17256;43.618;25.336;2023-03-16T03:51:50;99668.19;;;7.29;100.00
30463;BME280;17256;43.618;25.336;2023-03-16T03:54:52;99800.41;;;8.04;100.00
30463;BME280;17256;43.618;25.336;2023-03-16T03:57:41;99902.44;;;8.74;100.00
30463;BME280;17256;43.618;25.336;2023-03-16T04:00:55;99528.81;;;6.40;100.00
30463;BME280;17256;43.618;25.336;2023-03-16T04:03:28;99712.13;;;7.34;100.00
30463;BME280;17256;43.618;25.336;2023-03-16T04:06:09;99788.31;;;7.85;100.00
30463;BME280;17256;43.618;25.336;2023-03-16T04:09:21;99926.88;;;8.82;100.00
30463;BME280;17256;43.618;25.336;2023-03-16T04:12:31;99574.66;;;6.52;100.00
30463;BME280;17256;43.618;25.336;2023-03-16T04:15:15;99449.53;;;5.86;100.00
30463;BME280;17256;43.618;25.336;2023-03-16T04:18:16;99528.72;;;6.27;100.00
30463;BME280;17256;43.618;25.336;2023-03-16T04:20:44;99884.59;;;8.43;100.00
30463;BME280;17256;43.618;25.336;2023-03-16T04:23:39;99546.41;;;6.38;100.00
30463;BME280;17256;43.618;25.336;2023-03-16T04:26:32;99956.59;;;8.85;100.00
30463;BME280;17256;43.618;25.336;2023-03-16T04:29:44;99734.09;;;7.54;100.00
30463;BME280;17256;43.618;25.336;2023-03-16T04:32:39;99657.75;;;7.05;100.00
30463;BME280;17256;43.618;25.336;2023-03-16T04:35:20;99728.63;;;7.48;100.00
30463;BME280;17256;43.618;25.336;2023-03-16T04:38:00;99701.06;;;7.15;100.00
30463;BME280;17256;43.618;25.336;2023-03-16T04:41:05;99978.03;;;8.75;100.00
30463;BME280;17256;43.618;25.336;2023-03-16T04:44:06;99879.63;;;8.25;100.00
30463;BME280;17256;43.618;25.336;2023-03-16T04:46:48;99875.72;;;8.07;100.00
30463;BME280;17256;43.618;25.336;2023-03-16T04:49:38;99483.16;;;5.72;100.00
30463;BME280;17256;43.618;25.336;2023-03-16T04:52:52;99986.25;;;8.75;100.00
30463;BME280;17256;43.618;25.336;2023-03-16T04:55:52;99996.56;;;8.73;100.00
30463;BME280;17256;43.618;25.336;2023-03-16T04:58:48;99896.56;;;8.08;100.00
30463;BME280;17256;43.618;25.336;2023-03-16T05:01:27;99567.50;;;6.01;100.00
30463;BME280;17256;43.618;25.336;2023-03-16T05:04:00;99785.22;;;7.04;100.00
30463;BME280;17256;43.618;25.336;2023-03-16T05:07:04;100007.91;;;8.42;100.00
30463;BME280;17256;43.618;25.336;2023-03-16T05:09:39;99580.53;;;5.70;100.00
30463;BME280;17256;43.618;25.336;2023-03-16T05:12:26;99611.41;;;5.55;100.00
30463;BME280;17256;43.618;25.336;2023-03-16T05:15:13;99610.22;;;5.29;100.00
30463;BME280;17256;43.618;25.336;2023-03-16T05:17:49;99574.88;;;4.99;100.00
30463;BME280;17256;43.618;25.336;2023-03-16T05:20:26;99733.09;;;5.70;100.00
30463;BME280;17256;43.618;25.336;2023-03-16T05:22:58;99891.13;;;6.58;100.00
30463;BME280;17256;43.618;25.336;2023-03-16T05:25:29;100041.31;;;7.30;100.00
30463;BME280;17256;43.618;25.336;2023-03-16T05:28:15;100065.19;;;7.22;100.00
30463;BME280;17256;43.618;25.336;2023-03-16T05:31:03;99677.00;;;4.72;100.00
30463;BME280;17256;43.618;25.336;2023-03-16T05:38:20;99903.53;;;5.72;100.00
30463;BME280;17256;43.618;25.336;2023-03-16T06:03:15;100100.25;;;6.13;100.00
30463;BME280;17256;43.618;25.336;2023-03-16T06:10:07;100112.47;;;5.95;100.00
30463;BME280;17256;43.618;25.336;2023-03-16T06:13:18;100114.03;;;5.97;100.00
30463;BME280;17256;43.618;25.336;2023-03-16T06:16:55;99942.59;;;4.88;100.00
30463;BME280;17256;43.618;25.336;2023-03-16T06:32:01;100160.34;;;5.97;100.00
30463;BME280;17256;43.618;25.336;2023-03-16T06:35:55;100161.38;;;5.96;100.00
30463;BME280;17256;43.618;25.336;2023-03-16T06:39:33;100169.63;;;5.80;100.00
30463;BME280;17256;43.618;25.336;2023-03-16T06:43:42;99921.31;;;4.29;100.00
30463;BME280;17256;43.618;25.336;2023-03-16T06:47:20;99686.66;;;2.89;100.00
30463;BME280;17256;43.618;25.336;2023-03-16T06:50:59;99790.16;;;3.49;100.00
30463;BME280;17256;43.618;25.336;2023-03-16T06:54:21;99857.44;;;3.70;100.00
30463;BME280;17256;43.618;25.336;2023-03-16T06:58:05;100205.84;;;5.88;100.00
30463;BME280;17256;43.618;25.336;2023-03-16T07:00:49;99934.09;;;4.13;100.00
30463;BME280;17256;43.618;25.336;2023-03-16T07:16:23;100238.75;;;5.79;100.00
30463;BME280;17256;43.618;25.336;2023-03-16T07:18:55;100164.34;;;5.39;100.00
30463;BME280;17256;43.618;25.336;2023-03-16T07:21:39;100099.03;;;5.00;100.00
30463;BME280;17256;43.618;25.336;2023-03-16T07:24:46;100258.97;;;5.93;100.00
30463;BME280;17256;43.618;25.336;2023-03-16T07:28:42;99945.84;;;3.97;100.00
30463;BME280;17256;43.618;25.336;2023-03-16T07:31:52;99813.94;;;3.15;100.00
30463;BME280;17256;43.618;25.336;2023-03-16T07:38:40;100258.50;;;5.81;100.00
30463;BME280;17256;43.618;25.336;2023-03-16T07:42:53;99925.88;;;3.57;100.00
30463;BME280;17256;43.618;25.336;2023-03-16T07:50:37;100271.50;;;5.63;100.00
30463;BME280;17256;43.618;25.336;2023-03-16T07:54:35;100162.28;;;4.94;100.00
30463;BME280;17256;43.618;25.336;2023-03-16T08:01:49;100034.09;;;4.17;100.00
30463;BME280;17256;43.618;25.336;2023-03-16T08:04:51;99857.34;;;3.06;100.00
30463;BME280;17256;43.618;25.336;2023-03-16T08:08:24;100301.09;;;5.82;100.00
30463;BME280;17256;43.618;25.336;2023-03-16T08:12:04;100296.84;;;5.79;100.00
30463;BME280;17256;43.618;25.336;2023-03-16T08:15:14;100136.31;;;4.67;100.00
30463;BME280;17256;43.618;25.336;2023-03-16T08:18:56;100308.53;;;5.88;100.00
30463;BME280;17256;43.618;25.336;2023-03-16T08:22:22;100204.03;;;5.34;100.00
30463;BME280;17256;43.618;25.336;2023-03-16T08:25:26;100156.31;;;5.07;100.00
30463;BME280;17256;43.618;25.336;2023-03-16T08:28:59;99953.66;;;3.92;100.00
30463;BME280;17256;43.618;25.336;2023-03-16T08:32:16;100026.47;;;4.29;100.00
30463;BME280;17256;43.618;25.336;2023-03-16T08:35:02;100161.34;;;5.26;100.00
30463;BME280;17256;43.618;25.336;2023-03-16T08:37:54;100319.56;;;6.11;100.00
30463;BME280;17256;43.618;25.336;2023-03-16T08:44:40;99901.44;;;3.49;100.00
30463;BME280;17256;43.618;25.336;2023-03-16T08:47:14;100091.84;;;4.44;100.00
30463;BME280;17256;43.618;25.336;2023-03-16T08:51:05;100036.19;;;3.99;100.00
30463;BME280;17256;43.618;25.336;2023-03-16T08:54:09;100239.28;;;5.19;100.00
30463;BME280;17256;43.618;25.336;2023-03-16T09:00:23;100206.97;;;5.16;100.00
30463;BME280;17256;43.618;25.336;2023-03-16T09:03:00;100110.03;;;4.51;100.00
30463;BME280;17256;43.618;25.336;2023-03-16T09:06:20;99994.25;;;3.77;100.00
30463;BME280;17256;43.618;25.336;2023-03-16T09:09:55;100369.44;;;6.20;100.00
30463;BME280;17256;43.618;25.336;2023-03-16T09:13:03;100370.50;;;6.10;100.00
30463;BME280;17256;43.618;25.336;2023-03-16T09:16:21;100377.13;;;6.16;100.00
30463;BME280;17256;43.618;25.336;2023-03-16T09:19:15;100123.28;;;4.54;100.00
30463;BME280;17256;43.618;25.336;2023-03-16T09:21:43;99930.63;;;3.31;100.00
30463;BME280;17256;43.618;25.336;2023-03-16T09:24:26;100011.72;;;3.58;100.00
30463;BME280;17256;43.618;25.336;2023-03-16T09:27:37;100243.38;;;5.23;100.00
30463;BME280;17256;43.618;25.336;2023-03-16T09:30:25;99979.16;;;3.50;100.00
30463;BME280;17256;43.618;25.336;2023-03-16T09:33:29;100047.56;;;4.03;100.00
30463;BME280;17256;43.618;25.336;2023-03-16T09:36:02;100008.16;;;3.66;100.00
30463;BME280;17256;43.618;25.336;2023-03-16T09:39:00;99986.13;;;3.53;100.00
30463;BME280;17256;43.618;25.336;2023-03-16T09:45:22;100407.66;;;6.11;100.00
30463;BME280;17256;43.618;25.336;2023-03-16T09:48:02;100126.34;;;4.43;100.00
30463;BME280;17256;43.618;25.336;2023-03-16T09:50:55;100415.03;;;6.03;100.00
30463;BME280;17256;43.618;25.336;2023-03-16T09:57:32;100122.78;;;4.35;100.00
30463;BME280;17256;43.618;25.336;2023-03-16T10:00:44;100129.91;;;4.44;100.00
30463;BME280;17256;43.618;25.336;2023-03-16T10:06:18;100259.88;;;5.30;100.00
30463;BME280;17256;43.618;25.336;2023-03-16T10:12:00;100172.53;;;4.68;100.00
30463;BME280;17256;43.618;25.336;2023-03-16T10:15:31;100438.81;;;6.17;100.00
30463;BME280;17256;43.618;25.336;2023-03-16T10:18:43;100268.75;;;5.23;100.00
30463;BME280;17256;43.618;25.336;2023-03-16T10:22:01;100015.28;;;3.59;100.00
30463;BME280;17256;43.618;25.336;2023-03-16T10:28:16;100153.72;;;4.50;100.00
30463;BME280;17256;43.618;25.336;2023-03-16T10:31:12;100437.81;;;6.10;100.00
30463;BME280;17256;43.618;25.336;2023-03-16T10:35:19;100443.63;;;6.07;100.00
30463;BME280;17256;43.618;25.336;2023-03-16T10:46:16;100163.22;;;4.29;100.00
30463;BME280;17256;43.618;25.336;2023-03-16T10:49:47;100189.56;;;4.29;100.00
30463;BME280;17256;43.618;25.336;2023-03-16T11:03:28;100451.66;;;5.92;100.00
30463;BME280;17256;43.618;25.336;2023-03-16T11:06:46;100458.97;;;6.00;100.00
30463;BME280;17256;43.618;25.336;2023-03-16T11:10:31;100451.66;;;5.92;100.00
30463;BME280;17256;43.618;25.336;2023-03-16T11:14:33;100079.59;;;3.66;100.00
30463;BME280;17256;43.618;25.336;2023-03-16T11:17:51;100161.50;;;4.12;100.00
30463;BME280;17256;43.618;25.336;2023-03-16T11:21:12;100458.78;;;5.85;100.00
30463;BME280;17256;43.618;25.336;2023-03-16T11:28:31;100461.22;;;5.96;100.00
30463;BME280;17256;43.618;25.336;2023-03-16T11:32:03;100260.09;;;4.79;100.00
30463;BME280;17256;43.618;25.336;2023-03-16T11:34:39;100067.72;;;3.59;100.00
30463;BME280;17256;43.618;25.336;2023-03-16T11:56:48;100458.13;;;5.99;100.00
30463;BME280;17256;43.618;25.336;2023-03-16T11:59:47;100211.81;;;4.57;100.00
30463;BME280;17256;43.618;25.336;2023-03-16T12:16:14;100473.28;;;6.02;100.00
30463;BME280;17256;43.618;25.336;2023-03-16T12:19:03;100386.63;;;5.56;100.00
30463;BME280;17256;43.618;25.336;2023-03-16T12:25:41;100479.72;;;6.17;100.00
30463;BME280;17256;43.618;25.336;2023-03-16T12:28:52;100486.69;;;6.20;100.00
30463;BME280;17256;43.618;25.336;2023-03-16T12:42:23;100517.38;;;6.13;100.00
30463;BME280;17256;43.618;25.336;2023-03-16T12:49:16;100503.44;;;5.92;100.00
30463;BME280;17256;43.618;25.336;2023-03-16T12:57:15;100168.72;;;3.71;100.00
30463;BME280;17256;43.618;25.336;2023-03-16T13:27:32;100177.59;;;3.73;100.00
30463;BME280;17256;43.618;25.336;2023-03-16T13:37:27;100191.88;;;3.91;100.00
30463;BME280;17256;43.618;25.336;2023-03-16T13:39:59;100404.00;;;5.23;100.00
30463;BME280;17256;43.618;25.336;2023-03-16T13:42:35;100302.03;;;4.44;100.00
30463;BME280;17256;43.618;25.336;2023-03-16T13:48:35;100553.88;;;6.04;100.00
30463;BME280;17256;43.618;25.336;2023-03-16T13:51:36;100556.28;;;5.99;100.00
30463;BME280;17256;43.618;25.336;2023-03-16T13:54:47;100568.88;;;6.00;100.00
30463;BME280;17256;43.618;25.336;2023-03-16T14:01:03;100415.22;;;5.12;100.00
30463;BME280;17256;43.618;25.336;2023-03-16T14:03:38;100311.25;;;4.51;100.00
30463;BME280;17256;43.618;25.336;2023-03-16T14:06:33;100219.03;;;3.83;100.00
30463;BME280;17256;43.618;25.336;2023-03-16T14:09:24;100161.69;;;3.44;100.00
30463;BME280;17256;43.618;25.336;2023-03-16T14:12:10;100458.78;;;5.20;100.00
30463;BME280;17256;43.618;25.336;2023-03-16T14:15:54;100439.91;;;5.10;100.00
30463;BME280;17256;43.618;25.336;2023-03-16T14:22:12;100219.84;;;3.76;100.00
30463;BME280;17256;43.618;25.336;2023-03-16T14:25:01;100171.59;;;3.61;100.00
30463;BME280;17256;43.618;25.336;2023-03-16T14:28:06;100233.13;;;3.95;100.00
30463;BME280;17256;43.618;25.336;2023-03-16T14:30:35;100393.25;;;4.73;100.00
30463;BME280;17256;43.618;25.336;2023-03-16T14:33:36;100609.09;;;6.06;100.00
30463;BME280;17256;43.618;25.336;2023-03-16T14:37:09;100253.72;;;4.06;100.00
30463;BME280;17256;43.618;25.336;2023-03-16T14:43:03;100229.19;;;3.81;100.00
30463;BME280;17256;43.618;25.336;2023-03-16T14:46:09;100608.22;;;6.06;100.00
30463;BME280;17256;43.618;25.336;2023-03-16T14:49:02;100326.03;;;4.49;100.00
30463;BME280;17256;43.618;25.336;2023-03-16T14:51:58;100199.06;;;3.58;100.00
30463;BME280;17256;43.618;25.336;2023-03-16T14:54:27;100539.50;;;5.62;100.00
30463;BME280;17256;43.618;25.336;2023-03-16T14:57:14;100381.81;;;4.61;100.00
30463;BME280;17256;43.618;25.336;2023-03-16T14:59:44;100357.59;;;4.42;100.00
30463;BME280;17256;43.618;25.336;2023-03-16T15:02:39;100318.16;;;4.21;100.00
30463;BME280;17256;43.618;25.336;2023-03-16T15:05:22;100226.09;;;3.68;100.00
30463;BME280;17256;43.618;25.336;2023-03-16T15:07:55;100332.59;;;4.22;100.00
30463;BME280;17256;43.618;25.336;2023-03-16T15:10:34;100483.13;;;5.21;100.00
30463;BME280;17256;43.618;25.336;2023-03-16T15:13:20;100291.00;;;3.87;100.00
30463;BME280;17256;43.618;25.336;2023-03-16T15:16:10;100589.75;;;5.67;100.00
30463;BME280;17256;43.618;25.336;2023-03-16T15:18:56;100574.59;;;5.65;100.00
30463;BME280;17256;43.618;25.336;2023-03-16T15:21:26;100564.22;;;5.68;100.00
30463;BME280;17256;43.618;25.336;2023-03-16T15:24:13;100306.97;;;3.90;100.00
30463;BME280;17256;43.618;25.336;2023-03-16T15:26:39;100656.97;;;6.25;100.00
30463;BME280;17256;43.618;25.336;2023-03-16T15:29:08;100539.16;;;5.40;100.00
30463;BME280;17256;43.618;25.336;2023-03-16T15:31:39;100409.50;;;4.64;100.00
30463;BME280;17256;43.618;25.336;2023-03-16T15:34:55;100275.66;;;3.70;100.00
30463;BME280;17256;43.618;25.336;2023-03-16T15:37:39;100553.66;;;5.49;100.00
30463;BME280;17256;43.618;25.336;2023-03-16T15:40:30;100448.97;;;4.69;100.00
30463;BME280;17256;43.618;25.336;2023-03-16T15:43:00;100434.31;;;4.53;100.00
30463;BME280;17256;43.618;25.336;2023-03-16T15:45:46;100508.09;;;5.01;100.00
30463;BME280;17256;43.618;25.336;2023-03-16T15:48:57;100453.72;;;4.67;100.00
30463;BME280;17256;43.618;25.336;2023-03-16T15:51:36;100499.78;;;5.02;100.00
30463;BME280;17256;43.618;25.336;2023-03-16T15:54:16;100467.88;;;4.78;100.00
30463;BME280;17256;43.618;25.336;2023-03-16T15:56:45;100656.09;;;5.92;100.00
30463;BME280;17256;43.618;25.336;2023-03-16T15:59:15;100457.50;;;4.74;100.00
30463;BME280;17256;43.618;25.336;2023-03-16T16:01:50;100476.72;;;4.80;100.00
30463;BME280;17256;43.618;25.336;2023-03-16T16:04:21;100644.53;;;5.98;100.00
30463;BME280;17256;43.618;25.336;2023-03-16T16:06:55;100523.41;;;5.02;100.00
30463;BME280;17256;43.618;25.336;2023-03-16T16:09:32;100598.44;;;5.54;100.00
30463;BME280;17256;43.618;25.336;2023-03-16T16:12:11;100600.59;;;5.43;100.00
30463;BME280;17256;43.618;25.336;2023-03-16T16:14:59;100731.78;;;6.14;100.00
30463;BME280;17256;43.618;25.336;2023-03-16T16:21:16;100514.81;;;4.72;100.00
30463;BME280;17256;43.618;25.336;2023-03-16T16:23:42;100728.72;;;6.09;100.00
30463;BME280;17256;43.618;25.336;2023-03-16T16:26:35;100694.88;;;5.86;100.00
30463;BME280;17256;43.618;25.336;2023-03-16T16:29:38;100534.41;;;4.84;100.00
30463;BME280;17256;43.618;25.336;2023-03-16T16:32:23;100372.03;;;3.92;100.00
30463;BME280;17256;43.618;25.336;2023-03-16T16:34:52;100462.59;;;4.35;100.00
30463;BME280;17256;43.618;25.336;2023-03-16T16:37:25;100531.25;;;4.71;100.00
30463;BME280;17256;43.618;25.336;2023-03-16T16:39:59;100772.38;;;6.26;100.00
30463;BME280;17256;43.618;25.336;2023-03-16T16:42:28;100490.91;;;4.50;100.00
30463;BME280;17256;43.618;25.336;2023-03-16T16:44:59;100509.97;;;4.58;100.00
30463;BME280;17256;43.618;25.336;2023-03-16T16:47:30;100593.81;;;4.97;100.00
30463;BME280;17256;43.618;25.336;2023-03-16T16:50:25;100802.56;;;6.24;100.00
30463;BME280;17256;43.618;25.336;2023-03-16T16:53:17;100568.59;;;4.86;100.00
30463;BME280;17256;43.618;25.336;2023-03-16T16:55:56;100445.00;;;4.13;100.00
30463;BME280;17256;43.618;25.336;2023-03-16T16:58:27;100815.53;;;6.38;100.00
30463;BME280;17256;43.618;25.336;2023-03-16T17:01:12;100615.63;;;5.05;100.00
30463;BME280;17256;43.618;25.336;2023-03-16T17:03:45;100663.41;;;5.41;100.00
30463;BME280;17256;43.618;25.336;2023-03-16T17:09:02;100652.63;;;5.23;100.00
30463;BME280;17256;43.618;25.336;2023-03-16T17:11:30;100778.09;;;5.98;100.00
30463;BME280;17256;43.618;25.336;2023-03-16T17:13:58;100739.78;;;5.66;100.00
30463;BME280;17256;43.618;25.336;2023-03-16T17:16:25;100623.44;;;5.00;100.00
30463;BME280;17256;43.618;25.336;2023-03-16T17:18:52;100699.50;;;5.43;100.00
30463;BME280;17256;43.618;25.336;2023-03-16T17:21:20;100599.50;;;4.77;100.00
30463;BME280;17256;43.618;25.336;2023-03-16T17:23:51;100851.69;;;6.40;100.00
30463;BME280;17256;43.618;25.336;2023-03-16T17:26:22;100859.53;;;6.43;100.00
30463;BME280;17256;43.618;25.336;2023-03-16T17:29:08;100644.22;;;5.09;100.00
30463;BME280;17256;43.618;25.336;2023-03-16T17:31:48;100655.09;;;5.09;100.00
30463;BME280;17256;43.618;25.336;2023-03-16T17:34:18;100802.38;;;5.83;100.00
30463;BME280;17256;43.618;25.336;2023-03-16T17:36:45;100681.84;;;5.13;100.00
30463;BME280;17256;43.618;25.336;2023-03-16T17:39:22;100512.00;;;4.22;100.00
30463;BME280;17256;43.618;25.336;2023-03-16T17:41:58;100625.50;;;4.72;100.00
30463;BME280;17256;43.618;25.336;2023-03-16T17:44:26;100681.66;;;5.15;100.00
30463;BME280;17256;43.618;25.336;2023-03-16T17:46:57;100847.63;;;6.02;100.00
30463;BME280;17256;43.618;25.336;2023-03-16T17:49:23;100715.72;;;5.19;100.00
30463;BME280;17256;43.618;25.336;2023-03-16T17:51:57;100730.56;;;5.24;100.00
30463;BME280;17256;43.618;25.336;2023-03-16T17:54:39;100647.13;;;4.81;100.00
30463;BME280;17256;43.618;25.336;2023-03-16T17:57:31;100909.63;;;6.34;100.00
30463;BME280;17256;43.618;25.336;2023-03-16T18:00:03;100901.91;;;6.22;100.00
30463;BME280;17256;43.618;25.336;2023-03-16T18:04:59;100746.78;;;5.34;100.00
30463;BME280;17256;43.618;25.336;2023-03-16T18:07:25;100818.16;;;5.72;100.00
30463;BME280;17256;43.618;25.336;2023-03-16T18:09:51;100681.00;;;4.87;100.00
30463;BME280;17256;43.618;25.336;2023-03-16T18:12:17;100706.38;;;4.95;100.00
30463;BME280;17256;43.618;25.336;2023-03-16T18:14:43;100692.06;;;4.85;100.00
30463;BME280;17256;43.618;25.336;2023-03-16T18:17:14;100940.22;;;6.46;100.00
30463;BME280;17256;43.618;25.336;2023-03-16T18:19:42;100736.78;;;5.09;100.00
30463;BME280;17256;43.618;25.336;2023-03-16T18:22:20;100960.81;;;6.40;100.00
30463;BME280;17256;43.618;25.336;2023-03-16T18:24:48;100762.59;;;5.31;100.00
30463;BME280;17256;43.618;25.336;2023-03-16T18:27:15;100792.09;;;5.43;100.00
30463;BME280;17256;43.618;25.336;2023-03-16T18:32:36;100735.38;;;4.79;100.00
30463;BME280;17256;43.618;25.336;2023-03-16T18:35:02;100732.53;;;4.88;100.00
30463;BME280;17256;43.618;25.336;2023-03-16T18:37:45;100647.59;;;4.25;100.00
30463;BME280;17256;43.618;25.336;2023-03-16T18:40:27;100927.22;;;5.80;100.00
30463;BME280;17256;43.618;25.336;2023-03-16T18:47:19;100531.50;;;3.38;100.00
30463;BME280;17256;43.618;25.336;2023-03-16T18:50:58;100959.16;;;5.70;100.00
30463;BME280;17256;43.618;25.336;2023-03-16T18:54:57;100971.31;;;5.75;100.00